Allen, TX

11:24 PM CDT on July 04, 2015 (GMT -0500)
Parker Lake Estates | | Change Station
CLOSE
Current Station
Personal Weather Station
Location: Allen, TX
Elevation: 640 ft
Nearby Weather Stations

Elev 640 ft 33.08 °N, 96.62 °W | Updated 7 minutes ago

Mostly Cloudy
Mostly Cloudy
80.4 °F
Feels Like 85 °F
N
0.0
Wind Variable Wind from SE
Gusts 1.0 mph

Today
High -- | Low -- °F
--% Chance of Precip.
Yesterday
High -- | Low -- °F
Precip. -- in
6:22 AM 8:39 PM
Waning Gibbous, 88% visible
Pressure 29.96 in
Visibility 10.0 miles
Clouds Mostly Cloudy 5000 ft
Overcast 7000 ft
Heat Index 85 °F
Dew Point 75 °F
Humidity 82%
Rainfall 0.00 in
Snow Depth Not available.
UV 0 out of 12
Pollen 3.00 out of 12
Air Quality Not available.
Flu Activity Not available.
METAR KTKI 050353Z AUTO 10006KT 10SM BKN050 OVC070 27/23 A2998 RMK AO2 SLP146 T02720228 $

More Conditions Fewer Conditions

Pressure 29.96 in
Visibility 10.0 miles
Clouds Mostly Cloudy 5000 ft
Overcast 7000 ft
Heat Index 85 °F
Dew Point 75 °F
Humidity 82%
Rainfall 0.00 in
Snow Depth Not available.
UV 0 out of 12
Pollen 3.00 out of 12
Air Quality Not available.
Flu Activity Not available.
METAR KTKI 050353Z AUTO 10006KT 10SM BKN050 OVC070 27/23 A2998 RMK AO2 SLP146 T02720228 $

More Conditions Fewer Conditions

Nowcast | as of 11:01 PM CDT on July 4, 2015

Scattered showers and thunderstorms east of a line from Ardmore Oklahoma to McKinney to Athens will continue to move southeast at 10 mph. Cloud to ground lightning and heavy rain will accompany some of these storms. Rainfall amounts will average less than 1/2 inch. Otherwise...partly cloudy skies and humid conditions across north and central Texas overnight. Temperatures will fall into the 70s areawide overnight.

×

10-Day Weather Forecast

×

Almanac

Astronomy

Jul. 04, 2015 Rise Set
Actual Time
Civil Twilight
Nautical Twilight
Astronomical Twilight
Moon
Length of Visible Light
Length of Day
Tomorrow will be .
, % of the Moon is Illuminated

Today's Extremes

State Highs State Lows

Community

WunderPhotos

Upload Photos

1,835,197 photos uploaded!

WunderBlogs® & News

Nearby

Air Quality

  Air Quality AQ Index Pollutant
Not available.

Snow Depth

Station Depth Elevation

Earthquake Activity

City Distance Mag. Time & Date
Minimum magnitude displayed is 2.5.

Coastal Water Temperatures

Place Temperature

Stations

Nearby Weather Stations

Station Location Temp. Windchill Dew Point Humidity Wind Precip. Elev Updated Type